PANC/ANC METAR and TAF weather

Enter ICAO airport designator
Station Type Date Time Source
PANC METAR 2019/02/16 06:53 UTC NOAA

PANC 160653Z 13004KT 10SM CLR M14/M17 A3011 RMK AO2 SLP201 T11391172


Station Type Date Time Source
PANC Decoded METAR 2019/02/16 06:53 UTC NOAA

TED STEVENS ANCHORAGE INTERNATIONAL , AK, United States (PANC) 61-10N 150-02W 48M
Feb 16, 2019 - 01:53 AM EST / 2019.02.16 0653 UTC
Wind: from the SE (130 degrees) at 5 MPH (4 KT):0
Visibility: 10 mile(s):0
Sky conditions: clear
Temperature: 7.0 F (-13.9 C)
Windchill: -2 F (-19 C):1
Dew Point: 1.0 F (-17.2 C)
Relative Humidity: 76%
Pressure (altimeter): 30.11 in. Hg (1019 hPa)
ob: PANC 160653Z 13004KT 10SM CLR M14/M17 A3011 RMK AO2 SLP201 T11391172
cycle: 7

Station Type Date Time Source
PANC TAF 2019/02/16 06:24 UTC NOAA

TAF PANC 160522Z 1606/1712 VRB04KT P6SM SCT100 OVC200
FM161800 VRB04KT P6SM VCSH SCT030 OVC050
FM162100 36005KT 2SM -SN OVC020
FM170600 01009KT P6SM VCSH SCT025 OVC040 WS020/14035KT


Example: see airport list